createdAt,value
2022-08-03T00:01:34.975Z,0.60
2022-08-03T00:04:01.868Z,0.40
2022-08-03T00:06:28.319Z,0.50
2022-08-03T00:08:54.843Z,0.73
2022-08-03T00:11:21.331Z,0.45
2022-08-03T00:13:47.802Z,0.60
2022-08-03T00:16:14.350Z,0.70
2022-08-03T00:18:41.312Z,0.40
2022-08-03T00:21:07.888Z,0.40
2022-08-03T00:23:52.087Z,0.65
2022-08-03T00:26:20.670Z,0.60
2022-08-03T00:28:47.477Z,0.50
2022-08-03T00:31:13.967Z,0.43
2022-08-03T00:33:58.782Z,0.40
2022-08-03T00:36:28.071Z,0.50
2022-08-03T00:38:55.361Z,0.45
2022-08-03T00:41:21.828Z,0.70
2022-08-03T00:43:48.511Z,0.55
2022-08-03T00:46:19.211Z,0.50
2022-08-03T00:48:51.774Z,0.70
2022-08-03T00:51:19.881Z,0.52
2022-08-03T00:53:46.552Z,0.50
2022-08-03T00:56:15.079Z,0.60
2022-08-03T00:58:43.678Z,0.40
2022-08-03T01:01:10.458Z,0.65
2022-08-03T01:03:36.975Z,0.70
2022-08-03T01:06:38.754Z,0.50
2022-08-03T01:09:17.144Z,0.50
2022-08-03T01:11:59.798Z,1.33
2022-08-03T01:14:34.394Z,0.50
2022-08-03T01:17:40.103Z,0.77
2022-08-03T01:20:11.591Z,0.70
2022-08-03T01:22:51.967Z,0.80
2022-08-03T01:25:33.195Z,0.75
2022-08-03T01:28:37.003Z,0.70
2022-08-03T01:31:13.203Z,0.82
2022-08-03T01:33:49.388Z,0.90
2022-08-03T01:36:24.548Z,0.60
2022-08-03T01:38:55.327Z,0.73
2022-08-03T01:41:30.756Z,1.00
2022-08-03T01:44:29.417Z,0.70
2022-08-03T01:46:49.998Z,1.00
2022-08-03T01:49:18.090Z,0.77
2022-08-03T01:51:57.722Z,0.88
2022-08-03T01:54:34.839Z,0.75
2022-08-03T01:57:02.866Z,0.80
2022-08-03T01:59:32.409Z,1.20
2022-08-03T02:02:27.683Z,0.82
2022-08-03T02:04:49.035Z,1.10
2022-08-03T02:07:16.315Z,1.08
2022-08-03T02:09:46.887Z,0.90
2022-08-03T02:12:15.324Z,1.27
2022-08-03T02:14:44.326Z,0.88
2022-08-03T02:17:12.518Z,1.60
2022-08-03T02:19:40.732Z,1.00
2022-08-03T02:22:10.711Z,1.02
2022-08-03T02:24:37.762Z,1.15
2022-08-03T02:27:10.593Z,1.42
2022-08-03T02:29:41.194Z,1.35
2022-08-03T02:32:17.282Z,2.00
2022-08-03T02:34:48.891Z,1.15
2022-08-03T02:37:19.339Z,1.17
2022-08-03T02:39:47.852Z,1.33
2022-08-03T02:42:18.706Z,1.00
2022-08-03T02:44:49.470Z,1.10
2022-08-03T02:47:20.982Z,1.42
2022-08-03T02:49:52.076Z,1.40
2022-08-03T02:52:24.467Z,1.48
2022-08-03T02:54:54.936Z,1.35
2022-08-03T02:57:22.892Z,1.10
2022-08-03T02:59:50.551Z,1.70
2022-08-03T03:02:18.499Z,1.42
2022-08-03T03:05:51.101Z,1.30
2022-08-03T03:07:51.370Z,1.40
2022-08-03T03:10:22.150Z,1.40
2022-08-03T03:12:51.691Z,1.40
2022-08-03T03:15:18.903Z,1.30
2022-08-03T03:17:46.486Z,1.70
2022-08-03T03:20:14.753Z,1.85
2022-08-03T03:22:41.383Z,1.50
2022-08-03T03:25:11.951Z,1.40
2022-08-03T03:27:39.809Z,2.17
2022-08-03T03:30:07.091Z,1.30
2022-08-03T03:32:33.883Z,1.45
2022-08-03T03:35:01.170Z,1.55
2022-08-03T03:37:27.684Z,1.20
2022-08-03T03:39:54.893Z,1.45
2022-08-03T03:42:21.660Z,1.48
2022-08-03T03:44:48.485Z,1.38
2022-08-03T03:47:15.028Z,1.25
2022-08-03T03:49:44.012Z,1.98
2022-08-03T03:52:10.767Z,1.25
2022-08-03T03:54:44.844Z,2.03
2022-08-03T03:57:13.084Z,1.75
2022-08-03T03:59:43.503Z,1.58
2022-08-03T04:02:11.350Z,2.00
2022-08-03T04:04:57.331Z,2.67
2022-08-03T04:07:43.858Z,2.63
2022-08-03T04:10:37.373Z,2.70
2022-08-03T04:13:09.993Z,2.95
2022-08-03T04:15:39.615Z,3.83
2022-08-03T04:18:09.915Z,3.83
2022-08-03T04:20:39.345Z,3.95
2022-08-03T04:23:14.214Z,4.18
2022-08-03T04:25:43.886Z,4.25
2022-08-03T04:28:29.621Z,4.35
2022-08-03T04:31:00.003Z,4.97
2022-08-03T04:33:29.662Z,4.88
2022-08-03T04:36:02.576Z,5.43
2022-08-03T04:38:31.694Z,5.80
2022-08-03T04:40:59.843Z,5.07
2022-08-03T04:43:27.813Z,6.50
2022-08-03T04:45:54.778Z,6.35
2022-08-03T04:48:21.559Z,7.30
2022-08-03T04:50:48.605Z,8.60
2022-08-03T04:53:17.164Z,6.53
2022-08-03T04:55:43.656Z,6.20
2022-08-03T04:58:10.428Z,5.57
2022-08-03T05:00:36.975Z,4.40
2022-08-03T05:03:03.427Z,4.03
2022-08-03T05:05:49.732Z,4.03
2022-08-03T05:08:16.859Z,3.35
2022-08-03T05:10:47.740Z,3.47
2022-08-03T05:13:14.573Z,2.45
2022-08-03T05:15:43.150Z,2.70
2022-08-03T05:18:13.841Z,2.13
2022-08-03T05:20:40.760Z,3.00
2022-08-03T05:23:07.227Z,2.13
2022-08-03T05:25:33.680Z,1.63
2022-08-03T05:28:00.149Z,2.05
2022-08-03T05:30:32.621Z,1.77
2022-08-03T05:35:56.037Z,2.28
2022-08-03T05:38:15.334Z,2.20
2022-08-03T05:40:56.717Z,2.35
2022-08-03T05:43:24.499Z,1.90
2022-08-03T05:46:11.467Z,1.42
2022-08-03T05:48:37.858Z,1.60
2022-08-03T05:51:06.617Z,1.58
2022-08-03T05:53:33.990Z,1.52
2022-08-03T05:56:13.190Z,1.90
2022-08-03T05:58:43.412Z,1.33
2022-08-03T06:01:09.964Z,1.95
2022-08-03T06:03:36.449Z,1.77
2022-08-03T06:06:02.949Z,1.65
2022-08-03T06:08:29.418Z,1.50
2022-08-03T06:10:55.832Z,1.60
2022-08-03T06:13:22.327Z,1.70
2022-08-03T06:15:48.814Z,2.00
2022-08-03T06:18:15.270Z,1.80
2022-08-03T06:20:41.712Z,1.70
2022-08-03T06:23:08.164Z,1.40
2022-08-03T06:25:43.079Z,1.48
2022-08-03T06:28:19.064Z,1.73
2022-08-03T06:30:50.823Z,1.63
2022-08-03T06:33:17.302Z,1.58
2022-08-03T06:35:44.700Z,1.55
2022-08-03T06:38:12.948Z,1.75
2022-08-03T06:40:42.302Z,1.30
2022-08-03T06:43:12.541Z,1.55
2022-08-03T06:45:39.238Z,1.67
2022-08-03T06:48:07.854Z,2.63
2022-08-03T06:50:36.572Z,1.30
2022-08-03T06:53:04.112Z,1.48
2022-08-03T06:55:31.619Z,1.42
2022-08-03T06:57:59.746Z,1.13
2022-08-03T07:00:31.280Z,2.05
2022-08-03T07:02:58.488Z,1.48
2022-08-03T07:05:25.377Z,1.35
2022-08-03T07:07:55.793Z,1.33
2022-08-03T07:10:22.260Z,1.55
2022-08-03T07:12:52.668Z,1.50
2022-08-03T07:15:55.471Z,1.23
2022-08-03T07:18:10.160Z,1.45
2022-08-03T07:20:36.743Z,1.38
2022-08-03T07:23:03.667Z,1.30
2022-08-03T07:25:30.149Z,1.60
2022-08-03T07:27:56.708Z,2.08
2022-08-03T07:30:24.683Z,2.10
2022-08-03T07:32:51.254Z,1.38
2022-08-03T07:35:24.684Z,1.27
2022-08-03T07:40:22.227Z,1.58
2022-08-03T07:42:48.793Z,1.80
2022-08-03T07:45:21.340Z,1.88
2022-08-03T07:47:53.280Z,1.95
2022-08-03T07:50:21.061Z,1.98
2022-08-03T07:52:47.958Z,2.22
2022-08-03T07:55:14.432Z,2.22
2022-08-03T07:57:40.949Z,2.50
2022-08-03T08:00:14.922Z,2.35
2022-08-03T08:02:41.990Z,3.30
2022-08-03T08:05:09.104Z,2.85
2022-08-03T08:07:35.566Z,2.60
2022-08-03T08:10:02.209Z,2.80
2022-08-03T08:12:28.670Z,2.28
2022-08-03T08:14:55.148Z,2.50
2022-08-03T08:17:23.952Z,3.00
2022-08-03T08:19:51.728Z,3.17
2022-08-03T08:22:30.209Z,2.83
2022-08-03T08:24:57.758Z,2.50
2022-08-03T08:27:24.203Z,2.90
2022-08-03T08:29:54.536Z,3.33
2022-08-03T08:32:23.277Z,2.80
2022-08-03T08:34:49.819Z,2.83
2022-08-03T08:37:16.445Z,3.13
2022-08-03T08:39:42.931Z,3.20
2022-08-03T08:42:10.337Z,2.92
2022-08-03T08:44:36.934Z,3.28
2022-08-03T08:47:04.328Z,3.15
2022-08-03T08:49:33.010Z,3.22
2022-08-03T08:52:01.667Z,2.95
2022-08-03T08:54:32.467Z,3.58
2022-08-03T08:57:02.877Z,3.50
2022-08-03T08:59:48.033Z,4.28
2022-08-03T09:02:16.445Z,3.33
2022-08-03T09:04:45.532Z,2.60
2022-08-03T09:07:20.174Z,2.75
2022-08-03T09:10:04.799Z,3.85
2022-08-03T09:12:42.726Z,3.35
2022-08-03T09:15:25.464Z,3.65
2022-08-03T09:17:54.363Z,3.63
2022-08-03T09:20:22.411Z,3.33
2022-08-03T09:23:09.677Z,3.25
2022-08-03T09:26:00.114Z,3.30
2022-08-03T09:28:59.675Z,3.40
2022-08-03T09:31:30.132Z,3.03
2022-08-03T09:34:00.977Z,3.38
2022-08-03T09:36:45.826Z,3.50
2022-08-03T09:39:17.727Z,3.25
2022-08-03T09:41:46.660Z,2.85
2022-08-03T09:44:24.567Z,3.17
2022-08-03T09:46:56.118Z,3.30
2022-08-03T09:49:23.037Z,3.33
2022-08-03T09:52:31.317Z,3.38
2022-08-03T09:54:36.530Z,2.60
2022-08-03T09:57:03.170Z,3.45
2022-08-03T09:59:32.137Z,3.63
2022-08-03T10:02:00.842Z,3.30
2022-08-03T10:04:27.460Z,4.05
2022-08-03T10:07:04.790Z,3.13
2022-08-03T10:09:31.412Z,2.83
2022-08-03T10:11:59.936Z,3.60
2022-08-03T10:14:30.315Z,3.25
2022-08-03T10:16:56.836Z,2.53
2022-08-03T10:19:23.394Z,3.70
2022-08-03T10:21:55.165Z,3.80
2022-08-03T10:24:26.369Z,2.60
2022-08-03T10:27:00.493Z,2.67
2022-08-03T10:31:58.836Z,2.63
2022-08-03T10:34:28.958Z,2.65
2022-08-03T10:36:59.992Z,2.80
2022-08-03T10:39:29.821Z,2.53
2022-08-03T10:41:59.796Z,2.50
2022-08-03T10:44:37.098Z,2.40
2022-08-03T10:47:04.645Z,1.85
2022-08-03T10:49:33.637Z,1.85
2022-08-03T10:52:02.607Z,2.30
2022-08-03T10:55:03.545Z,1.98
2022-08-03T10:57:49.671Z,2.90
2022-08-03T11:00:25.098Z,1.73
2022-08-03T11:03:06.951Z,2.05
2022-08-03T11:05:36.255Z,2.08
2022-08-03T11:08:21.182Z,1.75
2022-08-03T11:10:48.780Z,1.73
2022-08-03T11:13:17.396Z,2.17
2022-08-03T11:15:46.659Z,1.80
2022-08-03T11:18:14.548Z,2.25
2022-08-03T11:20:51.480Z,2.40
2022-08-03T11:24:04.486Z,1.60
2022-08-03T11:26:22.612Z,2.03
2022-08-03T11:28:49.431Z,1.73
2022-08-03T11:31:48.827Z,2.03
2022-08-03T11:34:13.577Z,1.42
2022-08-03T11:37:17.828Z,1.55
2022-08-03T11:39:47.423Z,1.30
2022-08-03T11:42:22.867Z,1.90
2022-08-03T11:44:54.346Z,1.40
2022-08-03T11:47:22.596Z,1.65
2022-08-03T11:49:51.868Z,1.48
2022-08-03T11:52:18.401Z,1.55
2022-08-03T11:54:45.649Z,1.40
2022-08-03T11:57:12.317Z,1.50
2022-08-03T11:59:38.988Z,1.10
2022-08-03T12:02:16.346Z,1.35
2022-08-03T12:05:01.301Z,1.30
2022-08-03T12:08:03.617Z,1.50
2022-08-03T12:10:16.778Z,1.67
2022-08-03T12:12:46.381Z,1.42
2022-08-03T12:15:13.448Z,1.23
2022-08-03T12:17:41.356Z,1.10
2022-08-03T12:20:10.264Z,1.48
2022-08-03T12:22:38.564Z,1.33
2022-08-03T12:25:07.847Z,1.67
2022-08-03T12:27:35.114Z,1.08
2022-08-03T12:30:02.122Z,1.30
2022-08-03T12:32:29.771Z,1.10
2022-08-03T12:35:01.889Z,1.70
2022-08-03T12:37:29.593Z,1.40
2022-08-03T12:40:10.140Z,0.90
2022-08-03T12:42:39.540Z,1.40
2022-08-03T12:45:38.541Z,0.95
2022-08-03T12:48:09.879Z,1.25
2022-08-03T12:50:37.330Z,1.17
2022-08-03T12:53:07.952Z,1.55
2022-08-03T12:55:56.230Z,1.50
2022-08-03T12:58:35.401Z,1.58
2022-08-03T13:01:09.499Z,1.27
2022-08-03T13:03:50.018Z,1.40
2022-08-03T13:06:20.436Z,1.02
2022-08-03T13:08:48.246Z,1.08
2022-08-03T13:11:57.236Z,1.25
2022-08-03T13:14:20.573Z,1.33
2022-08-03T13:16:49.092Z,1.60
2022-08-03T13:19:16.179Z,1.85
2022-08-03T13:21:53.383Z,1.55
2022-08-03T13:24:30.623Z,2.35
2022-08-03T13:26:58.172Z,6.65
2022-08-03T13:29:24.847Z,9.98
2022-08-03T13:31:51.658Z,40.05
2022-08-03T13:34:23.222Z,44.10
2022-08-03T13:39:57.360Z,44.72
2022-08-03T13:42:25.360Z,53.33
2022-08-03T13:44:51.919Z,43.67
2022-08-03T13:47:22.004Z,47.65
2022-08-03T13:49:59.918Z,36.10
2022-08-03T13:52:32.670Z,36.67
2022-08-03T13:55:00.148Z,32.33
2022-08-03T13:58:04.605Z,29.45
2022-08-03T14:00:26.391Z,26.95
2022-08-03T14:03:01.839Z,23.63
2022-08-03T14:05:34.146Z,22.20
2022-08-03T14:08:04.324Z,20.15
2022-08-03T14:10:32.113Z,19.40
2022-08-03T14:13:00.341Z,19.88
2022-08-03T14:15:28.459Z,16.75
2022-08-03T14:17:55.311Z,16.23
2022-08-03T14:20:26.006Z,15.50
2022-08-03T14:23:06.732Z,15.40
2022-08-03T14:25:43.440Z,13.73
2022-08-03T14:28:18.232Z,14.73
2022-08-03T14:30:44.814Z,12.75
2022-08-03T14:33:11.325Z,11.32
2022-08-03T14:35:37.842Z,12.55
2022-08-03T14:38:04.295Z,10.13
2022-08-03T14:40:30.822Z,9.85
2022-08-03T14:42:57.288Z,10.27
2022-08-03T14:45:23.783Z,10.05
2022-08-03T14:50:28.894Z,9.90
2022-08-03T14:50:43.244Z,8.00
2022-08-03T14:53:10.848Z,9.43
2022-08-03T14:55:38.755Z,7.47
2022-08-03T14:58:19.715Z,8.02
2022-08-03T15:00:48.673Z,7.60
2022-08-03T15:03:16.935Z,6.80
2022-08-03T15:05:44.129Z,7.68
2022-08-03T15:08:10.553Z,7.15
2022-08-03T15:10:40.446Z,7.63
2022-08-03T15:13:12.557Z,8.68
2022-08-03T15:15:39.587Z,8.98
2022-08-03T15:18:06.157Z,11.32
2022-08-03T15:20:43.837Z,10.85
2022-08-03T15:23:11.772Z,10.07
2022-08-03T15:26:03.722Z,9.65
2022-08-03T15:28:24.792Z,8.13
2022-08-03T15:30:53.001Z,9.27
2022-08-03T15:33:19.848Z,8.48
2022-08-03T15:35:47.459Z,7.35
2022-08-03T15:38:13.978Z,7.53
2022-08-03T15:40:40.531Z,7.28
2022-08-03T15:43:07.147Z,6.95
2022-08-03T15:45:35.416Z,6.15
2022-08-03T15:48:03.207Z,6.50
2022-08-03T15:50:29.618Z,5.72
2022-08-03T15:52:56.685Z,6.28
2022-08-03T15:55:23.218Z,5.25
2022-08-03T15:59:09.086Z,5.80
2022-08-03T16:00:36.237Z,5.00
2022-08-03T16:03:02.806Z,4.40
2022-08-03T16:05:29.460Z,4.63
2022-08-03T16:08:02.842Z,3.85
2022-08-03T16:10:32.164Z,6.47
2022-08-03T16:12:59.904Z,4.85
2022-08-03T16:15:26.524Z,4.78
2022-08-03T16:17:53.047Z,4.75
2022-08-03T16:20:31.108Z,5.15
2022-08-03T16:23:03.385Z,4.00
2022-08-03T16:25:38.104Z,4.20
2022-08-03T16:28:08.060Z,3.95
2022-08-03T16:30:39.944Z,4.70
2022-08-03T16:33:06.388Z,4.38
2022-08-03T16:35:32.939Z,3.78
2022-08-03T16:37:59.419Z,3.40
2022-08-03T16:40:26.535Z,3.25
2022-08-03T16:42:53.129Z,3.72
2022-08-03T16:45:19.708Z,3.45
2022-08-03T16:47:46.148Z,3.53
2022-08-03T16:50:19.136Z,3.70
2022-08-03T16:52:48.317Z,2.67
2022-08-03T16:55:15.990Z,2.65
2022-08-03T16:58:03.346Z,2.47
2022-08-03T17:00:33.326Z,2.55
2022-08-03T17:03:04.434Z,2.40
2022-08-03T17:05:47.303Z,2.05
2022-08-03T17:08:14.782Z,1.55
2022-08-03T17:10:45.260Z,0.90
2022-08-03T17:13:15.202Z,1.45
2022-08-03T17:15:58.088Z,1.35
2022-08-03T17:18:32.379Z,1.45
2022-08-03T17:21:03.351Z,1.50
2022-08-03T17:23:51.769Z,1.63
2022-08-03T17:26:21.872Z,1.60
2022-08-03T17:28:57.333Z,1.88
2022-08-03T17:31:32.242Z,1.67
2022-08-03T17:34:12.625Z,1.13
2022-08-03T17:37:03.329Z,2.70
2022-08-03T17:39:48.373Z,1.45
2022-08-03T17:42:30.183Z,2.80
2022-08-03T17:44:58.766Z,1.70
2022-08-03T17:47:41.440Z,2.30
2022-08-03T17:50:24.192Z,1.42
2022-08-03T17:53:00.888Z,2.17
2022-08-03T17:55:58.553Z,2.28
2022-08-03T17:58:54.947Z,2.53
2022-08-03T18:01:59.842Z,1.88
2022-08-03T18:04:38.090Z,3.05
2022-08-03T18:07:11.377Z,2.13
2022-08-03T18:10:04.046Z,2.45
2022-08-03T18:12:53.907Z,1.90
2022-08-03T18:15:37.158Z,1.95
2022-08-03T18:18:10.590Z,2.47
2022-08-03T18:20:41.749Z,2.75
2022-08-03T18:23:24.846Z,2.53
2022-08-03T18:26:00.286Z,1.92
2022-08-03T18:28:28.872Z,2.22
2022-08-03T18:30:57.853Z,2.35
2022-08-03T18:34:16.917Z,2.58
2022-08-03T18:36:29.671Z,2.78
2022-08-03T18:38:59.364Z,2.28
2022-08-03T18:41:32.334Z,2.38
2022-08-03T18:44:06.681Z,1.70
2022-08-03T18:46:49.294Z,2.55
2022-08-03T18:49:34.873Z,2.25
2022-08-03T18:52:12.135Z,3.00
2022-08-03T18:55:01.028Z,2.13
2022-08-03T19:00:05.525Z,1.88
2022-08-03T19:02:55.915Z,2.05
2022-08-03T19:05:53.025Z,2.72
2022-08-03T19:08:26.986Z,1.85
2022-08-03T19:10:57.842Z,1.98
2022-08-03T19:13:36.072Z,1.83
2022-08-03T19:16:04.619Z,2.83
2022-08-03T19:18:37.487Z,1.45
2022-08-03T19:21:15.745Z,2.50
2022-08-03T19:23:45.115Z,3.15
2022-08-03T19:26:30.144Z,2.92
2022-08-03T19:28:58.497Z,2.25
2022-08-03T19:31:30.972Z,2.58
2022-08-03T19:33:59.843Z,1.58
2022-08-03T19:36:28.608Z,3.17
2022-08-03T19:38:56.511Z,2.88
2022-08-03T19:41:27.373Z,2.03
2022-08-03T19:44:00.345Z,2.13
2022-08-03T19:46:34.001Z,1.53
2022-08-03T19:49:04.529Z,1.60
2022-08-03T19:52:01.960Z,1.40
2022-08-03T19:54:29.456Z,1.17
2022-08-03T19:56:58.336Z,1.02
2022-08-03T19:59:26.416Z,1.92
2022-08-03T20:01:53.023Z,0.98
2022-08-03T20:04:21.307Z,1.20
2022-08-03T20:06:49.656Z,1.20
2022-08-03T20:09:17.975Z,1.20
2022-08-03T20:11:45.161Z,1.10
2022-08-03T20:14:13.220Z,1.50
2022-08-03T20:16:48.410Z,0.85
2022-08-03T20:19:16.554Z,1.50
2022-08-03T20:21:49.968Z,1.65
2022-08-03T20:24:24.630Z,1.58
2022-08-03T20:27:15.263Z,1.17
2022-08-03T20:30:07.480Z,1.40
2022-08-03T20:32:34.348Z,1.55
2022-08-03T20:35:00.988Z,1.67
2022-08-03T20:37:27.440Z,1.70
2022-08-03T20:39:57.049Z,1.60
2022-08-03T20:42:24.005Z,1.10
2022-08-03T20:45:05.208Z,1.50
2022-08-03T20:47:36.315Z,1.52
2022-08-03T20:50:08.997Z,1.20
2022-08-03T20:52:43.959Z,1.35
2022-08-03T20:55:17.113Z,0.93
2022-08-03T20:57:43.554Z,1.23
2022-08-03T21:00:19.486Z,1.40
2022-08-03T21:02:48.636Z,1.75
2022-08-03T21:05:15.112Z,1.35
2022-08-03T21:08:05.126Z,1.67
2022-08-03T21:10:33.680Z,0.98
2022-08-03T21:13:18.078Z,1.30
2022-08-03T21:16:06.287Z,1.40
2022-08-03T21:18:44.324Z,1.48
2022-08-03T21:21:14.947Z,2.20
2022-08-03T21:23:48.754Z,1.42
2022-08-03T21:26:20.926Z,1.38
2022-08-03T21:28:49.321Z,1.48
2022-08-03T21:31:22.362Z,1.60
2022-08-03T21:33:53.660Z,1.48
2022-08-03T21:36:20.132Z,2.42
2022-08-03T21:38:47.609Z,1.33
2022-08-03T21:41:23.370Z,1.63
2022-08-03T21:43:49.827Z,1.50
2022-08-03T21:46:18.921Z,1.40
2022-08-03T21:48:48.268Z,1.02
2022-08-03T21:51:18.375Z,1.50
2022-08-03T21:53:59.576Z,1.20
2022-08-03T21:56:36.914Z,1.42
2022-08-03T21:59:08.619Z,1.25
2022-08-03T22:01:39.553Z,1.48
2022-08-03T22:04:07.386Z,1.20
2022-08-03T22:06:42.283Z,1.30
2022-08-03T22:09:09.057Z,1.38
2022-08-03T22:11:37.461Z,1.33
2022-08-03T22:14:04.596Z,1.17
2022-08-03T22:16:31.484Z,1.38
2022-08-03T22:18:58.030Z,1.05
2022-08-03T22:21:36.288Z,1.02
2022-08-03T22:24:05.260Z,1.48
2022-08-03T22:26:35.439Z,1.42
2022-08-03T22:29:07.239Z,1.55
2022-08-03T22:31:58.239Z,1.27
2022-08-03T22:34:26.905Z,0.98
2022-08-03T22:36:57.129Z,1.85
2022-08-03T22:39:27.333Z,1.20
2022-08-03T22:41:54.283Z,1.20
2022-08-03T22:44:21.850Z,1.20
2022-08-03T22:46:48.556Z,1.35
2022-08-03T22:49:16.361Z,1.67
2022-08-03T22:51:43.199Z,2.10
2022-08-03T22:54:11.838Z,0.90
2022-08-03T22:56:38.990Z,1.27
2022-08-03T22:59:41.266Z,1.17
2022-08-03T23:01:56.370Z,1.20
2022-08-03T23:04:26.150Z,1.30
2022-08-03T23:06:56.705Z,1.15
2022-08-03T23:09:24.256Z,1.52
2022-08-03T23:11:53.287Z,1.17
2022-08-03T23:14:22.367Z,1.20
2022-08-03T23:16:50.712Z,1.42
2022-08-03T23:19:25.289Z,1.30
2022-08-03T23:22:02.777Z,1.20
2022-08-03T23:24:33.213Z,1.30
2022-08-03T23:27:02.901Z,1.02
2022-08-03T23:29:31.292Z,1.23
2022-08-03T23:31:59.430Z,1.40
2022-08-03T23:34:46.107Z,1.33
2022-08-03T23:37:14.904Z,0.93
2022-08-03T23:39:44.706Z,1.45
2022-08-03T23:42:13.103Z,1.00
2022-08-03T23:44:42.788Z,1.38
2022-08-03T23:47:09.501Z,1.35
2022-08-03T23:49:36.027Z,1.23
2022-08-03T23:52:11.171Z,0.80
2022-08-03T23:54:59.253Z,1.13
2022-08-03T23:57:35.104Z,0.90
